Time;durP1;ratioP1;P1;durP2;ratioP2;P2;SDS_P1;SDS_P2;PMS_P1;PMS_P2;Temp;Humidity;BMP_temperature;BMP_pressure;BME280_temperature;BME280_humidity;BME280_pressure;Samples;Min_cycle;Max_cycle;Signal;HPM_P1;HPM_P2
2021/12/17 00:01:08;;;;;;;1999.90;999.90;;;;;;;0.44;64.76;103351.50;4923192;28;96854;-72
2021/12/17 00:03:43;;;;;;;1999.90;999.90;;;;;;;0.39;64.37;103343.94;4904685;28;100929;-73
2021/12/17 00:06:18;;;;;;;1999.90;999.90;;;;;;;0.38;64.53;103339.47;4921598;28;99174;-72
2021/12/17 00:08:50;;;;;;;1999.90;999.90;;;;;;;0.37;64.62;103345.47;4904293;28;98703;-73
2021/12/17 00:11:19;;;;;;;1999.90;999.90;;;;;;;0.36;64.47;103334.06;4920886;28;97007;-72
2021/12/17 00:13:47;;;;;;;1999.90;999.90;;;;;;;0.39;64.79;103337.03;4922343;28;98471;-72
2021/12/17 00:16:20;;;;;;;1999.90;999.90;;;;;;;0.38;64.55;103328.97;4923898;28;98929;-73
2021/12/17 00:44:11;;;;;;;1999.90;999.90;;;;;;;0.25;64.48;103320.66;4905177;28;98435;-71
2021/12/17 00:49:28;;;;;;;1999.90;999.90;;;;;;;0.15;64.78;103324.91;4905678;28;99539;-71
2021/12/17 00:51:58;;;;;;;1999.90;999.90;;;;;;;0.11;64.89;103321.81;4921997;28;97005;-71
2021/12/17 00:54:35;;;;;;;1999.90;999.90;;;;;;;0.05;64.67;103323.78;4922988;28;97261;-71
2021/12/17 00:57:09;;;;;;;1999.90;999.90;;;;;;;0.00;64.70;103323.31;4904055;28;99776;-71
2021/12/17 00:59:37;;;;;;;1999.90;999.90;;;;;;;-0.01;65.17;103331.91;4921985;28;96998;-71
2021/12/17 01:02:07;;;;;;;1999.90;999.90;;;;;;;-0.06;65.17;103334.81;4921362;28;97280;-70
2021/12/17 01:04:35;;;;;;;1999.90;999.90;;;;;;;-0.10;65.06;103341.44;4905730;28;97513;-71
2021/12/17 01:07:04;;;;;;;1999.90;999.90;;;;;;;-0.11;65.30;103342.22;4922283;28;98929;-71
2021/12/17 01:09:33;;;;;;;1999.90;999.90;;;;;;;-0.14;65.10;103349.75;4920649;28;97615;-71
2021/12/17 01:12:02;;;;;;;1999.90;999.90;;;;;;;-0.10;65.05;103341.44;4922307;28;97768;-71
2021/12/17 01:14:40;;;;;;;1999.90;999.90;;;;;;;-0.15;65.13;103342.66;4905527;28;96800;-71
2021/12/17 01:17:25;;;;;;;1999.90;999.90;;;;;;;-0.15;65.37;103347.88;4911648;28;100570;-71
2021/12/17 01:20:25;;;;;;;1999.90;999.90;;;;;;;-0.12;65.41;103356.06;4922490;28;97712;-72
2021/12/17 01:23:09;;;;;;;1999.90;999.90;;;;;;;-0.09;65.12;103353.78;4903608;28;97673;-72
2021/12/17 01:35:23;;;;;;;1999.90;999.90;;;;;;;0.11;64.65;103359.41;4905003;28;97763;-72
2021/12/17 01:41:14;;;;;;;1999.90;999.90;;;;;;;0.02;64.94;103368.91;4920242;28;97628;-72
2021/12/17 01:43:45;;;;;;;1999.90;999.90;;;;;;;-0.01;65.14;103378.13;4904000;28;100657;-72
2021/12/17 01:46:15;;;;;;;1999.90;999.90;;;;;;;-0.03;65.12;103377.94;4905493;28;97423;-72
2021/12/17 01:48:59;;;;;;;1999.90;999.90;;;;;;;-0.05;65.34;103376.88;4922307;28;97730;-73
2021/12/17 02:00:04;;;;;;;1999.90;999.90;;;;;;;-0.13;65.27;103383.00;4924438;28;96887;-72
2021/12/17 02:02:44;;;;;;;1999.90;999.90;;;;;;;-0.10;65.10;103380.69;4925090;28;99047;-72
2021/12/17 02:05:16;;;;;;;1999.90;999.90;;;;;;;-0.04;65.38;103375.19;4923654;28;98558;-72
2021/12/17 02:07:46;;;;;;;1999.90;999.90;;;;;;;-0.00;65.06;103379.97;4908890;28;97576;-72
2021/12/17 02:19:25;;;;;;;1999.90;999.90;;;;;;;-0.01;65.44;103383.38;4908134;28;99704;-72
2021/12/17 02:21:49;;;;;;;1999.90;999.90;;;;;;;-0.04;65.24;103383.97;4923877;28;97950;-72
2021/12/17 02:30:06;;;;;;;1999.90;999.90;;;;;;;0.19;64.64;103395.13;4923586;28;97869;-72
2021/12/17 02:32:37;;;;;;;1999.90;999.90;;;;;;;0.23;64.74;103388.53;4920153;28;97176;-72
2021/12/17 02:35:34;;;;;;;1999.90;999.90;;;;;;;0.27;64.47;103393.34;4904101;28;98824;-72
2021/12/17 02:38:03;;;;;;;1999.90;999.90;;;;;;;0.33;64.33;103387.81;4920415;28;97641;-72
2021/12/17 02:46:51;;;;;;;1999.90;999.90;;;;;;;0.35;64.34;103350.56;4902618;28;98373;-72
2021/12/17 02:49:19;;;;;;;1999.90;999.90;;;;;;;0.38;64.56;103358.72;4920413;28;99331;-72
2021/12/17 02:51:48;;;;;;;1999.90;999.90;;;;;;;0.43;64.41;103365.34;4903540;28;97631;-71
2021/12/17 02:54:17;;;;;;;1999.90;999.90;;;;;;;0.47;64.57;103367.53;4903613;28;96928;-72
2021/12/17 02:56:45;;;;;;;1999.90;999.90;;;;;;;0.51;64.40;103359.22;4917890;28;99816;-72
2021/12/17 02:59:13;;;;;;;1999.90;999.90;;;;;;;0.51;63.99;103347.81;4903225;28;99725;-72
2021/12/17 03:01:44;;;;;;;1999.90;999.90;;;;;;;0.49;64.28;103342.41;4914000;28;97650;-72
2021/12/17 03:04:14;;;;;;;1999.90;999.90;;;;;;;0.49;64.18;103331.00;4925225;28;97421;-72
2021/12/17 03:06:42;;;;;;;1999.90;999.90;;;;;;;0.48;64.37;103331.78;4916433;28;100512;-72
2021/12/17 03:09:10;;;;;;;1999.90;999.90;;;;;;;0.46;64.61;103328.09;4902749;28;99476;-72
2021/12/17 03:11:39;;;;;;;1999.90;999.90;;;;;;;0.42;64.81;103333.78;4903897;28;96994;-72
2021/12/17 03:14:08;;;;;;;1999.90;999.90;;;;;;;0.40;64.73;103337.94;4924592;28;97027;-71
2021/12/17 03:16:40;;;;;;;1999.90;999.90;;;;;;;0.38;64.49;103340.38;4922933;28;98141;-71
2021/12/17 03:19:13;;;;;;;1999.90;999.90;;;;;;;0.39;64.71;103360.59;4921591;28;99281;-70
2021/12/17 03:24:26;;;;;;;1999.90;999.90;;;;;;;0.41;64.86;103355.50;4922739;28;96854;-71
2021/12/17 03:26:56;;;;;;;1999.90;999.90;;;;;;;0.44;64.57;103350.56;4906553;28;99704;-71
2021/12/17 03:29:24;;;;;;;1999.90;999.90;;;;;;;0.47;64.19;103346.56;4938408;28;97753;-72
2021/12/17 03:32:00;;;;;;;1999.90;999.90;;;;;;;0.50;64.36;103349.53;4904599;28;97465;-72
2021/12/17 03:34:28;;;;;;;1999.90;999.90;;;;;;;0.54;64.61;103358.63;4923916;28;97159;-71
2021/12/17 03:36:57;;;;;;;1999.90;999.90;;;;;;;0.59;64.19;103366.19;4906270;28;97599;-70
2021/12/17 03:39:31;;;;;;;1999.90;999.90;;;;;;;0.64;64.26;103357.09;4939310;28;99013;-71
2021/12/17 03:42:03;;;;;;;1999.90;999.90;;;;;;;0.69;63.98;103362.78;4906409;28;96899;-71
2021/12/17 03:44:36;;;;;;;1999.90;999.90;;;;;;;0.70;64.09;103356.78;4922207;28;96743;-70
2021/12/17 03:47:05;;;;;;;1999.90;999.90;;;;;;;0.70;63.96;103354.16;4924192;28;100313;-71
2021/12/17 03:49:48;;;;;;;1999.90;999.90;;;;;;;0.73;64.42;103347.53;4907041;28;102406;-71
2021/12/17 03:52:17;;;;;;;1999.90;999.90;;;;;;;0.71;63.90;103348.13;4906757;28;97236;-71
2021/12/17 03:54:46;;;;;;;1999.90;999.90;;;;;;;0.73;64.45;103341.38;4938254;28;97391;-71
2021/12/17 03:57:19;;;;;;;1999.90;999.90;;;;;;;0.71;64.21;103351.69;4905439;28;99779;-71
2021/12/17 03:59:52;;;;;;;1999.90;999.90;;;;;;;0.71;64.38;103348.13;4921887;28;98238;-72
2021/12/17 04:02:24;;;;;;;1999.90;999.90;;;;;;;0.73;64.40;103336.13;4921849;28;96818;-72
2021/12/17 04:04:52;;;;;;;1999.90;999.90;;;;;;;0.77;63.75;103344.47;4906424;28;96835;-71
2021/12/17 04:07:33;;;;;;;1999.90;999.90;;;;;;;0.82;63.88;103347.53;4922112;28;98538;-72
2021/12/17 04:10:23;;;;;;;1999.90;999.90;;;;;;;0.83;63.86;103344.16;4923473;28;97901;-71
2021/12/17 04:12:59;;;;;;;1999.90;999.90;;;;;;;0.81;64.21;103341.34;4922783;28;96976;-71
2021/12/17 04:15:35;;;;;;;1999.90;999.90;;;;;;;0.82;63.96;103337.06;4921905;28;97747;-72
2021/12/17 04:18:07;;;;;;;1999.90;999.90;;;;;;;0.83;64.00;103338.91;4922137;28;99765;-71
2021/12/17 04:20:35;;;;;;;1999.90;999.90;;;;;;;0.82;63.63;103331.81;4923537;28;99307;-71
2021/12/17 04:23:03;;;;;;;1999.90;999.90;;;;;;;0.83;64.00;103336.28;4906162;28;97633;-72
2021/12/17 04:25:31;;;;;;;1999.90;999.90;;;;;;;0.83;63.59;103333.69;4906039;28;97429;-72
2021/12/17 04:28:02;;;;;;;1999.90;999.90;;;;;;;0.80;63.56;103329.03;4920930;28;98064;-72
2021/12/17 04:30:31;;;;;;;1999.90;999.90;;;;;;;0.81;63.53;103324.72;4906144;28;98895;-72
2021/12/17 04:32:59;;;;;;;1999.90;999.90;;;;;;;0.81;64.09;103325.63;4924517;28;97807;-71
2021/12/17 04:35:29;;;;;;;1999.90;999.90;;;;;;;0.82;63.92;103323.94;4922112;28;97183;-71
2021/12/17 04:38:01;;;;;;;1999.90;999.90;;;;;;;0.84;63.96;103319.78;4906067;28;100081;-72
2021/12/17 04:40:29;;;;;;;1999.90;999.90;;;;;;;0.80;64.00;103326.41;4905890;28;99500;-72
2021/12/17 04:43:11;;;;;;;1999.90;999.90;;;;;;;0.77;64.12;103325.19;4923754;28;97170;-71
2021/12/17 04:45:48;;;;;;;1999.90;999.90;;;;;;;0.75;64.33;103330.28;4926178;28;97029;-71
2021/12/17 04:59:27;;;;;;;1999.90;999.90;;;;;;;0.66;63.94;103338.91;4924808;28;98698;-71
2021/12/17 05:02:01;;;;;;;1999.90;999.90;;;;;;;0.66;64.13;103331.03;4933954;28;97796;-72
2021/12/17 05:04:34;;;;;;;1999.90;999.90;;;;;;;0.67;64.59;103336.44;4938449;28;96893;-72
2021/12/17 05:07:03;;;;;;;1999.90;999.90;;;;;;;0.67;64.24;103328.56;4922340;28;97005;-71
2021/12/17 05:09:38;;;;;;;1999.90;999.90;;;;;;;0.70;64.18;103333.19;4908188;28;98444;-72
2021/12/17 05:20:44;;;;;;;1999.90;999.90;;;;;;;0.78;63.89;103355.84;4906581;28;97132;-72
2021/12/17 05:23:12;;;;;;;1999.90;999.90;;;;;;;0.77;63.84;103352.31;4923815;28;99501;-72
2021/12/17 05:25:40;;;;;;;1999.90;999.90;;;;;;;0.78;63.99;103356.78;4907382;28;96907;-72
2021/12/17 05:28:08;;;;;;;1999.90;999.90;;;;;;;0.79;63.98;103349.84;4908679;28;96887;-72
2021/12/17 05:30:44;;;;;;;1999.90;999.90;;;;;;;0.80;63.87;103350.00;4900468;28;99913;-72
2021/12/17 05:33:14;;;;;;;1999.90;999.90;;;;;;;0.78;63.71;103348.00;4923976;28;96979;-72
2021/12/17 05:35:41;;;;;;;1999.90;999.90;;;;;;;0.80;63.62;103350.00;4908031;28;98091;-73
2021/12/17 05:38:10;;;;;;;1999.90;999.90;;;;;;;0.80;63.74;103355.25;4907893;28;98820;-72
2021/12/17 05:40:43;;;;;;;1999.90;999.90;;;;;;;0.81;63.59;103357.09;4905922;28;102241;-74
2021/12/17 05:43:12;;;;;;;1999.90;999.90;;;;;;;0.85;64.02;103364.50;4905845;28;99267;-73
2021/12/17 05:45:50;;;;;;;1999.90;999.90;;;;;;;0.87;63.46;103359.41;4905679;28;97790;-74
2021/12/17 05:48:21;;;;;;;1999.90;999.90;;;;;;;0.88;63.28;103363.88;4920785;28;97050;-74
2021/12/17 05:50:50;;;;;;;1999.90;999.90;;;;;;;0.90;63.69;103344.94;4921532;28;97820;-75
2021/12/17 05:53:19;;;;;;;1999.90;999.90;;;;;;;0.91;63.51;103344.16;4922856;28;97577;-74
2021/12/17 05:55:47;;;;;;;1999.90;999.90;;;;;;;0.90;62.99;103334.44;4905195;28;96892;-74
2021/12/17 05:58:15;;;;;;;1999.90;999.90;;;;;;;0.91;63.51;103331.03;4907248;28;98985;-73
2021/12/17 06:00:45;;;;;;;1999.90;999.90;;;;;;;0.91;63.45;103331.03;4924044;28;99114;-74
2021/12/17 06:03:49;;;;;;;1999.90;999.90;;;;;;;0.95;63.63;103342.75;4925399;28;99209;-73
2021/12/17 06:06:29;;;;;;;1999.90;999.90;;;;;;;0.96;63.29;103339.34;4921849;28;97569;-74
2021/12/17 06:09:00;;;;;;;1999.90;999.90;;;;;;;0.99;63.33;103337.06;4923872;28;96780;-74
2021/12/17 06:11:28;;;;;;;1999.90;999.90;;;;;;;1.01;63.35;103332.91;4939181;28;97709;-74
2021/12/17 06:13:56;;;;;;;1999.90;999.90;;;;;;;1.01;62.80;103325.03;4938911;28;98845;-74
2021/12/17 06:16:28;;;;;;;1999.90;999.90;;;;;;;1.00;63.31;103318.84;4923400;28;96958;-74
2021/12/17 06:18:57;;;;;;;1999.90;999.90;;;;;;;1.02;63.19;103334.72;4907233;28;98210;-74
2021/12/17 06:21:26;;;;;;;1999.90;999.90;;;;;;;1.04;63.33;103335.81;4939126;28;97683;-75
2021/12/17 06:23:53;;;;;;;1999.90;999.90;;;;;;;1.04;62.87;103343.69;4906279;28;99185;-74
2021/12/17 06:26:21;;;;;;;1999.90;999.90;;;;;;;1.04;63.48;103342.00;4910347;28;97774;-74
2021/12/17 06:28:52;;;;;;;1999.90;999.90;;;;;;;1.02;63.07;103338.28;4918316;28;98506;-75
2021/12/17 06:31:23;;;;;;;1999.90;999.90;;;;;;;1.03;63.59;103331.34;4922735;28;99329;-73
2021/12/17 06:33:52;;;;;;;1999.90;999.90;;;;;;;1.02;63.16;103330.41;4906089;28;99916;-73
2021/12/17 06:36:21;;;;;;;1999.90;999.90;;;;;;;1.05;63.25;103342.94;4922253;28;98100;-73
2021/12/17 06:38:49;;;;;;;1999.90;999.90;;;;;;;1.07;62.89;103342.28;4923461;28;97445;-73
2021/12/17 06:41:20;;;;;;;1999.90;999.90;;;;;;;1.09;63.52;103340.75;4906382;28;99433;-74
2021/12/17 06:43:48;;;;;;;1999.90;999.90;;;;;;;1.11;63.55;103328.72;4905750;28;100927;-73
2021/12/17 06:46:23;;;;;;;1999.90;999.90;;;;;;;1.09;63.41;103321.44;4922722;28;99397;-73
2021/12/17 06:48:58;;;;;;;1999.90;999.90;;;;;;;1.07;63.66;103328.25;4939952;28;97040;-72
2021/12/17 07:00:18;;;;;;;1999.90;999.90;;;;;;;1.02;63.35;103334.72;5042483;27;97434;-73
2021/12/17 07:06:36;;;;;;;1999.90;999.90;;;;;;;1.04;63.89;103326.25;5053966;27;100402;-71
2021/12/17 07:10:12;;;;;;;1999.90;999.90;;;;;;;1.05;64.06;103333.34;5020280;27;99397;-72
2021/12/17 07:21:24;;;;;;;1999.90;999.90;;;;;;;1.05;63.54;103349.06;4973128;28;97816;-71
2021/12/17 07:24:36;;;;;;;1999.90;999.90;;;;;;;1.07;63.22;103351.84;4957927;28;97751;-71
2021/12/17 07:33:07;;;;;;;1999.90;999.90;;;;;;;1.07;63.62;103346.59;5019286;27;99195;-71
2021/12/17 07:35:49;;;;;;;1999.90;999.90;;;;;;;1.11;63.62;103359.25;4985959;27;96820;-71
2021/12/17 07:41:43;;;;;;;1999.90;999.90;;;;;;;1.14;63.37;103364.81;5020250;27;97993;-73
2021/12/17 07:44:30;;;;;;;1999.90;999.90;;;;;;;1.16;63.63;103358.94;4984914;27;99497;-72
2021/12/17 07:47:19;;;;;;;1999.90;999.90;;;;;;;1.18;63.69;103365.25;5001084;28;98554;-73
2021/12/17 07:50:11;;;;;;;1999.90;999.90;;;;;;;1.20;63.26;103360.16;5000849;28;98350;-73
2021/12/17 07:52:58;;;;;;;1999.90;999.90;;;;;;;1.19;63.16;103353.09;5020215;27;97765;-73
2021/12/17 07:55:28;;;;;;;1999.90;999.90;;;;;;;1.19;63.04;103353.09;4973881;28;100168;-74
2021/12/17 07:57:56;;;;;;;1999.90;999.90;;;;;;;1.19;62.56;103359.25;4984571;28;97038;-73
2021/12/17 08:00:32;;;;;;;1999.90;999.90;;;;;;;1.20;63.38;103362.78;4990109;28;96973;-74
2021/12/17 08:03:02;;;;;;;1999.90;999.90;;;;;;;1.18;63.33;103360.00;4979903;28;99093;-73
2021/12/17 08:05:48;;;;;;;1999.90;999.90;;;;;;;1.16;62.92;103379.91;4982997;27;99050;-74
2021/12/17 08:08:16;;;;;;;1999.90;999.90;;;;;;;1.16;63.08;103397.34;4983391;27;97415;-73
2021/12/17 08:10:51;;;;;;;1999.90;999.90;;;;;;;1.16;62.77;103390.41;4975049;28;97706;-72
2021/12/17 08:13:22;;;;;;;1999.90;999.90;;;;;;;1.18;63.00;103383.63;4967085;28;101829;-73
2021/12/17 08:16:04;;;;;;;1999.90;999.90;;;;;;;1.22;62.93;103384.84;4968443;28;98644;-73
2021/12/17 08:18:47;;;;;;;1999.90;999.90;;;;;;;1.23;63.04;103392.88;4958571;28;97664;-74
2021/12/17 08:27:27;;;;;;;1999.90;999.90;;;;;;;1.26;62.58;103392.25;5002506;28;101177;-73
2021/12/17 08:30:20;;;;;;;1999.90;999.90;;;;;;;1.20;63.31;103375.91;4986561;28;97548;-73
2021/12/17 08:32:52;;;;;;;1999.90;999.90;;;;;;;1.18;62.70;103367.88;4969816;28;97320;-73
2021/12/17 08:35:21;;;;;;;1999.90;999.90;;;;;;;1.22;63.03;103374.34;5020351;27;98058;-73
2021/12/17 08:37:54;;;;;;;1999.90;999.90;;;;;;;1.19;63.34;103358.31;4959103;28;99869;-73
2021/12/17 08:40:26;;;;;;;1999.90;999.90;;;;;;;1.12;63.36;103366.38;4971274;28;97856;-74
2021/12/17 08:42:55;;;;;;;1999.90;999.90;;;;;;;1.10;63.47;103357.41;4981156;28;97141;-73
2021/12/17 08:45:23;;;;;;;1999.90;999.90;;;;;;;1.08;63.07;103358.94;5020089;27;97767;-73
2021/12/17 08:48:13;;;;;;;1999.90;999.90;;;;;;;1.08;63.17;103369.44;4982907;28;97558;-73
2021/12/17 08:50:46;;;;;;;1999.90;999.90;;;;;;;1.06;63.91;103364.03;4985974;28;98793;-73
2021/12/17 08:53:16;;;;;;;1999.90;999.90;;;;;;;1.04;63.17;103357.72;4969445;28;100122;-73
2021/12/17 08:55:45;;;;;;;1999.90;999.90;;;;;;;1.03;63.74;103357.56;5019118;27;100280;-73
2021/12/17 08:58:14;;;;;;;1999.90;999.90;;;;;;;1.00;63.53;103360.81;4966201;28;98617;-73
2021/12/17 09:00:46;;;;;;;1999.90;999.90;;;;;;;0.98;63.82;103361.41;4967306;28;97721;-73
2021/12/17 09:03:23;;;;;;;1999.90;999.90;;;;;;;1.01;63.83;103356.50;5003778;28;96919;-73
2021/12/17 09:06:06;;;;;;;1999.90;999.90;;;;;;;1.00;63.53;103355.56;4969099;28;99555;-73
2021/12/17 09:08:44;;;;;;;1999.90;999.90;;;;;;;1.04;63.69;103360.34;4970003;28;98700;-73
2021/12/17 09:11:12;;;;;;;1999.90;999.90;;;;;;;1.07;63.77;103362.31;5020123;27;97162;-73
2021/12/17 09:14:03;;;;;;;1999.90;999.90;;;;;;;1.10;63.77;103370.53;4970169;28;97323;-73
2021/12/17 09:16:47;;;;;;;1999.90;999.90;;;;;;;1.13;63.87;103377.00;4969594;28;99238;-73
2021/12/17 09:19:17;;;;;;;1999.90;999.90;;;;;;;1.17;63.02;103384.41;4969451;28;99657;-73
2021/12/17 09:21:50;;;;;;;1999.90;999.90;;;;;;;1.23;63.67;103382.38;5002697;28;97730;-74
2021/12/17 09:24:38;;;;;;;1999.90;999.90;;;;;;;1.29;62.83;103384.69;5003852;28;97652;-73
2021/12/17 09:27:12;;;;;;;1999.90;999.90;;;;;;;1.32;63.24;103377.13;5003432;28;97591;-73
2021/12/17 09:30:03;;;;;;;1999.90;999.90;;;;;;;1.31;63.71;103377.91;4976045;28;99335;-73
2021/12/17 09:32:31;;;;;;;1999.90;999.90;;;;;;;1.34;63.61;103370.34;5003500;28;97534;-74
2021/12/17 09:34:59;;;;;;;1999.90;999.90;;;;;;;1.38;63.34;103372.47;5004552;28;97247;-73
2021/12/17 09:37:26;;;;;;;1999.90;999.90;;;;;;;1.41;63.65;103380.69;4970272;28;100404;-73
2021/12/17 09:39:55;;;;;;;1999.90;999.90;;;;;;;1.46;62.79;103381.13;5004913;28;99385;-73
2021/12/17 09:42:23;;;;;;;1999.90;999.90;;;;;;;1.50;63.11;103378.97;4988334;28;97095;-73
2021/12/17 09:44:51;;;;;;;1999.90;999.90;;;;;;;1.52;63.10;103390.53;4968809;28;97643;-73
2021/12/17 09:47:18;;;;;;;1999.90;999.90;;;;;;;1.58;62.53;103399.00;5004198;28;98176;-73
2021/12/17 09:49:46;;;;;;;1999.90;999.90;;;;;;;1.62;62.68;103395.91;4985981;28;97695;-73
2021/12/17 09:52:14;;;;;;;1999.90;999.90;;;;;;;1.69;63.59;103392.19;5005265;28;97646;-74
2021/12/17 09:54:41;;;;;;;1999.90;999.90;;;;;;;1.72;63.26;103387.25;5004301;28;97627;-73
2021/12/17 09:57:10;;;;;;;1999.90;999.90;;;;;;;1.76;62.86;103397.28;5019533;27;98100;-73
2021/12/17 09:59:39;;;;;;;1999.90;999.90;;;;;;;1.76;63.20;103395.53;5003903;28;98895;-74
2021/12/17 10:02:07;;;;;;;1999.90;999.90;;;;;;;1.76;62.62;103390.28;4986141;28;97222;-73
2021/12/17 10:04:36;;;;;;;1999.90;999.90;;;;;;;1.78;63.49;103388.75;5005746;28;97213;-73
2021/12/17 10:07:22;;;;;;;1999.90;999.90;;;;;;;1.73;63.91;103392.63;5003078;28;98160;-73
2021/12/17 10:09:51;;;;;;;1999.90;999.90;;;;;;;1.67;63.99;103399.00;4975316;28;100312;-73
2021/12/17 10:12:24;;;;;;;1999.90;999.90;;;;;;;1.68;62.98;103392.97;5004216;28;96858;-73
2021/12/17 10:15:01;;;;;;;1999.90;999.90;;;;;;;1.73;63.34;103400.50;5004102;28;96804;-72
2021/12/17 10:17:29;;;;;;;1999.90;999.90;;;;;;;1.77;63.19;103393.84;5019872;27;99464;-72
2021/12/17 10:19:57;;;;;;;1999.90;999.90;;;;;;;1.80;62.97;103387.19;5003940;28;98076;-73
2021/12/17 10:22:26;;;;;;;1999.90;999.90;;;;;;;1.82;63.04;103390.91;5005188;28;98671;-73
2021/12/17 10:25:03;;;;;;;1999.90;999.90;;;;;;;1.78;63.02;103387.84;5002558;28;96901;-73
2021/12/17 10:27:34;;;;;;;1999.90;999.90;;;;;;;1.76;63.80;103379.78;4966672;28;100889;-73
2021/12/17 10:30:10;;;;;;;1999.90;999.90;;;;;;;1.76;63.11;103385.03;4999307;28;99124;-72
2021/12/17 10:32:41;;;;;;;1999.90;999.90;;;;;;;1.79;63.20;103377.50;4982337;28;97390;-75
2021/12/17 10:35:12;;;;;;;1999.90;999.90;;;;;;;1.80;63.58;103376.69;5000724;28;97119;-72
2021/12/17 10:37:43;;;;;;;1999.90;999.90;;;;;;;1.83;62.81;103377.03;4965246;28;99109;-73
2021/12/17 10:40:34;;;;;;;1999.90;999.90;;;;;;;1.83;63.35;103370.84;5000130;28;97689;-73
2021/12/17 10:43:13;;;;;;;1999.90;999.90;;;;;;;1.89;62.58;103363.56;4994006;28;97998;-73
2021/12/17 10:45:44;;;;;;;1999.90;999.90;;;;;;;1.87;62.90;103366.00;4981575;28;97063;-73
2021/12/17 10:48:23;;;;;;;1999.90;999.90;;;;;;;1.86;62.96;103361.56;4972525;28;98721;-74
2021/12/17 10:50:53;;;;;;;1999.90;999.90;;;;;;;1.85;63.22;103359.69;5014286;28;99301;-73
2021/12/17 10:53:25;;;;;;;1999.90;999.90;;;;;;;1.79;62.75;103364.38;5000781;28;96911;-73
2021/12/17 10:55:54;;;;;;;1999.90;999.90;;;;;;;1.78;62.63;103370.38;4999153;28;97800;-73
2021/12/17 10:58:23;;;;;;;1999.90;999.90;;;;;;;1.70;62.88;103371.34;4997033;28;98736;-73
2021/12/17 11:00:57;;;;;;;1999.90;999.90;;;;;;;1.68;62.83;103354.53;4991274;28;99204;-73
2021/12/17 11:03:25;;;;;;;1999.90;999.90;;;;;;;1.72;62.57;103350.50;4981261;28;99982;-73
2021/12/17 11:05:53;;;;;;;1999.90;999.90;;;;;;;1.71;63.26;103346.94;4999222;28;97229;-74
2021/12/17 11:08:28;;;;;;;1999.90;999.90;;;;;;;1.72;62.83;103343.56;4980940;28;100270;-74
2021/12/17 11:11:00;;;;;;;1999.90;999.90;;;;;;;1.72;63.33;103340.00;4978405;28;97893;-73
2021/12/17 11:13:29;;;;;;;1999.90;999.90;;;;;;;2.03;61.73;103353.63;4979000;28;97562;-72
2021/12/17 11:15:57;;;;;;;1999.90;999.90;;;;;;;1.89;62.92;103353.97;4999593;28;97901;-73
2021/12/17 11:18:37;;;;;;;1999.90;999.90;;;;;;;1.87;62.68;103350.25;4999877;28;97586;-74
2021/12/17 11:21:05;;;;;;;1999.90;999.90;;;;;;;1.86;62.64;103330.06;5000198;28;100359;-73
2021/12/17 11:23:34;;;;;;;1999.90;999.90;;;;;;;1.88;62.67;103328.50;4965283;28;98706;-73
2021/12/17 11:26:01;;;;;;;1999.90;999.90;;;;;;;2.18;61.76;103315.69;4998296;28;96893;-73
2021/12/17 11:28:30;;;;;;;1999.90;999.90;;;;;;;2.39;61.54;103322.06;4978789;28;99163;-73
2021/12/17 11:30:58;;;;;;;1999.90;999.90;;;;;;;2.57;60.97;103328.13;4953190;28;100546;-74
2021/12/17 11:33:27;;;;;;;1999.90;999.90;;;;;;;2.34;61.90;103330.28;4980960;28;97275;-74
2021/12/17 11:35:55;;;;;;;1999.90;999.90;;;;;;;2.27;61.45;103326.19;5000870;28;96840;-73
2021/12/17 11:38:29;;;;;;;1999.90;999.90;;;;;;;2.24;62.29;103327.59;4956438;28;100012;-73
2021/12/17 11:41:04;;;;;;;1999.90;999.90;;;;;;;2.25;61.85;103334.69;4997528;28;97569;-73
2021/12/17 11:43:47;;;;;;;1999.90;999.90;;;;;;;2.54;60.71;103333.09;4979500;28;96974;-73
2021/12/17 11:46:17;;;;;;;1999.90;999.90;;;;;;;2.73;60.43;103331.44;4982578;28;97701;-73
2021/12/17 11:48:54;;;;;;;1999.90;999.90;;;;;;;2.87;60.23;103331.94;5004853;28;98294;-73
2021/12/17 11:51:25;;;;;;;1999.90;999.90;;;;;;;3.02;59.63;103327.16;4986159;28;99693;-73
2021/12/17 11:53:59;;;;;;;1999.90;999.90;;;;;;;3.12;59.27;103336.03;5003499;28;97752;-73
2021/12/17 11:56:38;;;;;;;1999.90;999.90;;;;;;;3.17;58.85;103325.91;5003301;28;98598;-73
2021/12/17 11:59:10;;;;;;;1999.90;999.90;;;;;;;3.24;58.61;103320.41;5014740;27;98182;-73
2021/12/17 12:01:49;;;;;;;1999.90;999.90;;;;;;;3.26;58.25;103325.84;5015195;27;99908;-73
2021/12/17 12:04:24;;;;;;;1999.90;999.90;;;;;;;3.32;58.10;103319.41;5017459;27;98910;-73
2021/12/17 12:07:04;;;;;;;1999.90;999.90;;;;;;;3.37;58.12;103320.75;4983397;28;96991;-74
2021/12/17 12:09:57;;;;;;;1999.90;999.90;;;;;;;3.43;58.05;103323.00;4984491;28;97086;-74
2021/12/17 12:12:27;;;;;;;1999.90;999.90;;;;;;;3.47;57.66;103341.84;5017224;27;99211;-73
2021/12/17 12:15:31;;;;;;;1999.90;999.90;;;;;;;3.37;57.72;103333.00;5015597;27;96943;-73
2021/12/17 12:18:10;;;;;;;1999.90;999.90;;;;;;;2.99;58.72;103326.84;4998613;28;97682;-73
2021/12/17 12:21:04;;;;;;;1999.90;999.90;;;;;;;2.81;59.13;103328.72;4982971;28;100618;-73
2021/12/17 12:23:46;;;;;;;1999.90;999.90;;;;;;;2.68;59.65;103323.09;5003680;28;97512;-74
2021/12/17 12:26:22;;;;;;;1999.90;999.90;;;;;;;2.92;59.64;103324.44;5002147;28;97303;-73
2021/12/17 12:29:03;;;;;;;1999.90;999.90;;;;;;;2.97;58.53;103313.56;5014182;27;99002;-73
2021/12/17 12:31:41;;;;;;;1999.90;999.90;;;;;;;2.58;59.89;103322.09;5016295;27;99625;-73
2021/12/17 12:34:10;;;;;;;1999.90;999.90;;;;;;;2.55;60.57;103320.09;5001804;28;97793;-73
2021/12/17 12:37:18;;;;;;;1999.90;999.90;;;;;;;2.54;60.54;103325.22;4977302;28;96956;-74
2021/12/17 12:40:15;;;;;;;1999.90;999.90;;;;;;;2.51;60.27;103324.94;5001098;28;97226;-74
2021/12/17 12:42:52;;;;;;;1999.90;999.90;;;;;;;2.54;60.70;103320.88;5015356;27;97877;-74
2021/12/17 12:45:20;;;;;;;1999.90;999.90;;;;;;;2.50;61.32;103324.00;5003416;28;97937;-73
2021/12/17 12:47:58;;;;;;;1999.90;999.90;;;;;;;2.49;61.12;103322.13;4967122;28;97813;-74
2021/12/17 12:50:29;;;;;;;1999.90;999.90;;;;;;;2.50;60.74;103321.38;5003138;28;96824;-74
2021/12/17 12:53:00;;;;;;;1999.90;999.90;;;;;;;2.54;60.66;103314.69;5004011;28;98774;-74
2021/12/17 12:55:30;;;;;;;1999.90;999.90;;;;;;;2.54;60.96;103315.63;5001867;28;99634;-74
2021/12/17 12:58:06;;;;;;;1999.90;999.90;;;;;;;2.55;61.05;103316.53;4981866;28;96911;-74
2021/12/17 13:00:44;;;;;;;1999.90;999.90;;;;;;;2.54;61.07;103318.25;4984534;28;98652;-73
2021/12/17 13:03:17;;;;;;;1999.90;999.90;;;;;;;2.55;61.16;103311.28;4969688;28;99581;-74
2021/12/17 13:05:48;;;;;;;1999.90;999.90;;;;;;;2.82;59.79;103317.41;5002177;28;100522;-73
2021/12/17 13:08:17;;;;;;;1999.90;999.90;;;;;;;3.00;59.48;103307.66;4984070;28;97637;-73
2021/12/17 13:10:49;;;;;;;1999.90;999.90;;;;;;;3.15;58.99;103306.41;5002491;28;98604;-73
2021/12/17 13:13:20;;;;;;;1999.90;999.90;;;;;;;3.26;58.34;103305.69;4957811;28;99054;-72
2021/12/17 13:16:03;;;;;;;1999.90;999.90;;;;;;;3.36;57.88;103305.75;4983324;28;100229;-72
2021/12/17 13:24:25;;;;;;;1999.90;999.90;;;;;;;3.07;58.65;103292.59;4946309;28;100722;-72
2021/12/17 13:26:55;;;;;;;1999.90;999.90;;;;;;;3.31;58.21;103290.31;5014020;27;100517;-71
2021/12/17 13:29:26;;;;;;;1999.90;999.90;;;;;;;3.45;57.31;103293.41;4982583;28;98290;-71
2021/12/17 13:31:55;;;;;;;1999.90;999.90;;;;;;;3.54;57.20;103293.31;5001824;28;97500;-71
2021/12/17 13:34:30;;;;;;;1999.90;999.90;;;;;;;3.21;58.14;103299.09;5003026;28;98822;-71
2021/12/17 13:37:05;;;;;;;1999.90;999.90;;;;;;;3.43;57.66;103297.63;5002827;28;99476;-72